createdAt,value
2022-07-31T00:00:28.914Z,9.25
2022-07-31T00:02:57.549Z,7.82
2022-07-31T00:05:26.552Z,10.50
2022-07-31T00:07:55.450Z,7.20
2022-07-31T00:10:24.045Z,8.35
2022-07-31T00:12:53.739Z,7.10
2022-07-31T00:15:22.716Z,9.60
2022-07-31T00:17:50.928Z,7.25
2022-07-31T00:20:19.670Z,8.48
2022-07-31T00:22:49.383Z,7.72
2022-07-31T00:25:18.905Z,11.00
2022-07-31T00:27:47.671Z,7.70
2022-07-31T00:30:17.930Z,8.60
2022-07-31T00:32:46.580Z,8.23
2022-07-31T00:35:17.331Z,8.27
2022-07-31T00:37:46.263Z,6.05
2022-07-31T00:40:17.804Z,8.40
2022-07-31T00:42:46.197Z,7.07
2022-07-31T00:45:15.934Z,6.85
2022-07-31T00:47:44.501Z,8.00
2022-07-31T00:50:13.297Z,8.27
2022-07-31T00:52:41.593Z,6.78
2022-07-31T00:55:11.021Z,7.80
2022-07-31T00:57:39.317Z,7.63
2022-07-31T01:00:08.901Z,8.30
2022-07-31T01:02:46.542Z,7.70
2022-07-31T01:05:15.887Z,8.27
2022-07-31T01:07:44.089Z,10.95
2022-07-31T01:10:15.977Z,7.88
2022-07-31T01:12:54.335Z,7.25
2022-07-31T01:15:24.016Z,8.35
2022-07-31T01:17:54.550Z,8.85
2022-07-31T01:20:23.723Z,8.00
2022-07-31T01:23:18.885Z,7.80
2022-07-31T01:26:00.238Z,7.97
2022-07-31T01:28:50.343Z,11.05
2022-07-31T01:31:27.260Z,8.23
2022-07-31T01:34:05.268Z,8.98
2022-07-31T01:36:35.781Z,10.13
2022-07-31T01:39:05.190Z,8.93
2022-07-31T01:41:41.934Z,9.82
2022-07-31T01:44:13.753Z,8.80
2022-07-31T01:46:44.870Z,9.23
2022-07-31T01:49:15.065Z,9.07
2022-07-31T01:51:45.205Z,8.82
2022-07-31T01:54:14.028Z,10.07
2022-07-31T01:56:43.256Z,11.40
2022-07-31T01:59:20.420Z,9.25
2022-07-31T02:01:52.379Z,9.18
2022-07-31T02:04:22.801Z,9.93
2022-07-31T02:06:52.370Z,10.20
2022-07-31T02:09:21.990Z,9.80
2022-07-31T02:11:54.432Z,8.90
2022-07-31T02:14:26.018Z,8.48
2022-07-31T02:16:55.464Z,9.25
2022-07-31T02:19:25.374Z,8.73
2022-07-31T02:21:54.358Z,8.65
2022-07-31T02:24:23.115Z,10.55
2022-07-31T02:26:51.769Z,8.75
2022-07-31T02:29:21.749Z,9.10
2022-07-31T02:32:02.917Z,7.82
2022-07-31T02:34:33.872Z,8.82
2022-07-31T02:37:03.931Z,6.65
2022-07-31T02:39:33.762Z,5.68
2022-07-31T02:42:03.069Z,6.03
2022-07-31T02:44:34.825Z,7.65
2022-07-31T02:47:05.573Z,7.15
2022-07-31T02:49:34.587Z,6.75
2022-07-31T02:52:04.648Z,7.60
2022-07-31T02:54:34.572Z,8.02
2022-07-31T02:57:04.515Z,8.13
2022-07-31T02:59:33.037Z,8.52
2022-07-31T03:02:01.569Z,9.25
2022-07-31T03:04:31.452Z,7.45
2022-07-31T03:07:00.642Z,8.07
2022-07-31T03:09:30.772Z,7.97
2022-07-31T03:12:04.088Z,7.75
2022-07-31T03:14:35.368Z,7.32
2022-07-31T03:17:04.752Z,7.45
2022-07-31T03:19:34.541Z,7.80
2022-07-31T03:22:03.480Z,7.18
2022-07-31T03:24:32.495Z,7.30
2022-07-31T03:27:01.724Z,7.25
2022-07-31T03:29:43.685Z,7.30
2022-07-31T03:32:12.429Z,8.25
2022-07-31T03:34:42.194Z,9.82
2022-07-31T03:37:10.838Z,8.00
2022-07-31T03:39:39.200Z,8.65
2022-07-31T03:42:18.839Z,10.35
2022-07-31T03:44:47.942Z,9.77
2022-07-31T03:47:16.939Z,9.02
2022-07-31T03:49:47.920Z,10.85
2022-07-31T03:52:16.602Z,10.77
2022-07-31T03:54:44.748Z,8.73
2022-07-31T03:57:14.030Z,9.68
2022-07-31T03:59:48.379Z,9.40
2022-07-31T04:02:18.924Z,9.18
2022-07-31T04:04:49.866Z,10.38
2022-07-31T04:07:31.505Z,11.93
2022-07-31T04:10:03.276Z,12.82
2022-07-31T04:12:34.289Z,13.65
2022-07-31T04:15:02.593Z,14.05
2022-07-31T04:17:41.623Z,14.48
2022-07-31T04:20:23.178Z,12.45
2022-07-31T04:22:51.358Z,14.70
2022-07-31T04:25:35.985Z,13.57
2022-07-31T04:28:06.239Z,13.27
2022-07-31T04:30:41.044Z,14.50
2022-07-31T04:33:18.693Z,12.10
2022-07-31T04:35:48.875Z,13.63
2022-07-31T04:38:17.734Z,17.05
2022-07-31T04:40:49.643Z,16.92
2022-07-31T04:43:21.833Z,17.90
2022-07-31T04:45:50.078Z,14.52
2022-07-31T04:48:18.308Z,14.73
2022-07-31T04:50:48.233Z,17.17
2022-07-31T04:53:16.551Z,16.23
2022-07-31T04:56:09.221Z,17.48
2022-07-31T04:58:37.454Z,20.52
2022-07-31T05:01:05.635Z,19.55
2022-07-31T05:03:34.023Z,19.92
2022-07-31T05:06:12.674Z,18.50
2022-07-31T05:08:41.385Z,19.45
2022-07-31T05:11:24.757Z,19.75
2022-07-31T05:13:53.869Z,21.45
2022-07-31T05:16:23.549Z,21.10
2022-07-31T05:18:52.671Z,20.13
2022-07-31T05:21:23.511Z,21.92
2022-07-31T05:23:52.663Z,20.83
2022-07-31T05:26:21.773Z,23.85
2022-07-31T05:28:52.363Z,27.45
2022-07-31T05:31:23.967Z,25.80
2022-07-31T05:33:52.719Z,25.85
2022-07-31T05:36:22.838Z,27.48
2022-07-31T05:38:51.097Z,31.23
2022-07-31T05:41:19.701Z,31.08
2022-07-31T05:43:47.918Z,27.35
2022-07-31T05:46:17.495Z,30.50
2022-07-31T05:48:46.171Z,32.13
2022-07-31T05:51:15.293Z,33.88
2022-07-31T05:53:46.261Z,32.75
2022-07-31T05:56:15.070Z,39.25
2022-07-31T05:58:48.419Z,38.53
2022-07-31T06:01:17.031Z,36.90
2022-07-31T06:03:52.093Z,40.50
2022-07-31T06:06:20.844Z,40.45
2022-07-31T06:08:50.349Z,40.72
2022-07-31T06:11:18.701Z,41.40
2022-07-31T06:13:47.113Z,45.92
2022-07-31T06:16:16.311Z,43.75
2022-07-31T06:18:44.713Z,45.67
2022-07-31T06:23:40.311Z,45.72
2022-07-31T06:26:12.210Z,47.65
2022-07-31T06:28:48.881Z,44.45
2022-07-31T06:31:19.449Z,46.58
2022-07-31T06:33:48.527Z,46.50
2022-07-31T06:36:17.308Z,42.53
2022-07-31T06:38:45.974Z,46.13
2022-07-31T06:41:36.803Z,43.05
2022-07-31T06:44:05.981Z,37.53
2022-07-31T06:46:34.334Z,42.53
2022-07-31T06:49:06.805Z,40.33
2022-07-31T06:51:37.134Z,39.78
2022-07-31T06:54:09.072Z,37.95
2022-07-31T06:56:40.324Z,36.45
2022-07-31T06:59:09.244Z,34.47
2022-07-31T07:01:37.829Z,31.23
2022-07-31T07:04:06.364Z,33.53
2022-07-31T07:06:34.568Z,29.58
2022-07-31T07:09:02.785Z,31.70
2022-07-31T07:11:30.950Z,30.17
2022-07-31T07:14:00.560Z,27.45
2022-07-31T07:16:28.842Z,28.52
2022-07-31T07:18:57.210Z,28.38
2022-07-31T07:21:26.232Z,29.50
2022-07-31T07:23:54.936Z,26.27
2022-07-31T07:26:23.152Z,24.88
2022-07-31T07:28:51.365Z,27.52
2022-07-31T07:31:21.170Z,23.80
2022-07-31T07:33:51.513Z,27.25
2022-07-31T07:36:24.211Z,24.65
2022-07-31T07:38:55.798Z,27.45
2022-07-31T07:41:24.809Z,27.75
2022-07-31T07:43:53.397Z,28.77
2022-07-31T07:46:23.999Z,28.83
2022-07-31T07:48:52.777Z,26.80
2022-07-31T07:51:22.492Z,24.77
2022-07-31T07:53:50.738Z,27.92
2022-07-31T07:56:19.369Z,26.23
2022-07-31T07:58:49.217Z,28.98
2022-07-31T08:01:18.363Z,28.33
2022-07-31T08:03:52.108Z,27.92
2022-07-31T08:06:22.792Z,27.50
2022-07-31T08:08:51.312Z,26.08
2022-07-31T08:11:19.953Z,28.40
2022-07-31T08:13:50.864Z,27.48
2022-07-31T08:16:20.393Z,28.95
2022-07-31T08:18:51.533Z,28.02
2022-07-31T08:21:19.853Z,31.40
2022-07-31T08:23:48.325Z,31.52
2022-07-31T08:26:18.164Z,30.33
2022-07-31T08:28:50.191Z,29.02
2022-07-31T08:31:20.436Z,29.08
2022-07-31T08:33:50.111Z,31.05
2022-07-31T08:36:18.344Z,28.10
2022-07-31T08:38:47.263Z,30.42
2022-07-31T08:41:15.910Z,30.15
2022-07-31T08:44:00.047Z,26.55
2022-07-31T08:46:34.009Z,24.50
2022-07-31T08:49:05.706Z,26.40
2022-07-31T08:51:51.537Z,24.23
2022-07-31T08:54:22.383Z,23.45
2022-07-31T08:56:52.560Z,24.05
2022-07-31T08:59:22.207Z,22.73
2022-07-31T09:01:50.457Z,21.48
2022-07-31T09:04:20.148Z,21.58
2022-07-31T09:06:48.835Z,19.15
2022-07-31T09:09:17.974Z,19.08
2022-07-31T09:11:51.804Z,20.95
2022-07-31T09:14:28.766Z,20.05
2022-07-31T09:16:58.580Z,22.48
2022-07-31T09:19:53.627Z,21.38
2022-07-31T09:22:24.287Z,19.67
2022-07-31T09:24:53.205Z,19.33
2022-07-31T09:27:29.539Z,20.80
2022-07-31T09:29:58.707Z,18.85
2022-07-31T09:32:26.914Z,19.20
2022-07-31T09:35:07.431Z,17.45
2022-07-31T09:37:35.897Z,17.38
2022-07-31T09:40:05.533Z,16.88
2022-07-31T09:42:46.151Z,18.85
2022-07-31T09:45:21.810Z,16.13
2022-07-31T09:48:04.043Z,16.50
2022-07-31T09:50:33.652Z,17.70
2022-07-31T09:53:02.935Z,15.52
2022-07-31T09:55:31.147Z,17.15
2022-07-31T09:58:01.662Z,21.08
2022-07-31T10:00:30.359Z,19.38
2022-07-31T10:02:58.907Z,19.15
2022-07-31T10:05:29.098Z,20.98
2022-07-31T10:08:00.300Z,17.02
2022-07-31T10:10:31.114Z,17.27
2022-07-31T10:13:04.594Z,18.80
2022-07-31T10:15:37.617Z,17.13
2022-07-31T10:18:08.523Z,16.88
2022-07-31T10:20:38.318Z,16.65
2022-07-31T10:23:16.535Z,18.58
2022-07-31T10:25:53.735Z,16.60
2022-07-31T10:28:23.288Z,17.63
2022-07-31T10:30:51.961Z,15.52
2022-07-31T10:33:42.994Z,15.55
2022-07-31T10:36:18.509Z,16.30
2022-07-31T10:38:57.259Z,17.27
2022-07-31T10:41:46.722Z,15.52
2022-07-31T10:44:25.883Z,13.85
2022-07-31T10:46:54.125Z,14.13
2022-07-31T10:49:44.655Z,15.38
2022-07-31T10:52:13.898Z,14.23
2022-07-31T10:54:47.630Z,12.82
2022-07-31T10:57:27.578Z,10.20
2022-07-31T10:59:56.351Z,13.43
2022-07-31T11:02:38.751Z,11.93
2022-07-31T11:05:16.192Z,10.80
2022-07-31T11:07:46.868Z,9.85
2022-07-31T11:10:22.238Z,11.23
2022-07-31T11:13:01.644Z,15.98
2022-07-31T11:15:46.295Z,16.13
2022-07-31T11:18:46.085Z,19.65
2022-07-31T11:21:37.014Z,20.23
2022-07-31T11:24:06.614Z,19.17
2022-07-31T11:26:41.911Z,21.95
2022-07-31T11:30:00.510Z,20.02
2022-07-31T11:32:02.827Z,18.05
2022-07-31T11:34:31.532Z,20.13
2022-07-31T11:36:59.925Z,17.38
2022-07-31T11:39:35.632Z,14.88
2022-07-31T11:42:07.887Z,43.45
2022-07-31T11:44:36.841Z,16.40
2022-07-31T11:48:10.294Z,16.92
2022-07-31T11:50:03.284Z,17.20
2022-07-31T11:52:37.099Z,13.05
2022-07-31T11:55:09.703Z,16.20
2022-07-31T11:57:51.506Z,14.57
2022-07-31T12:00:28.817Z,15.07
2022-07-31T12:02:59.080Z,14.23
2022-07-31T12:05:37.599Z,15.60
2022-07-31T12:08:09.279Z,13.70
2022-07-31T12:10:38.081Z,11.30
2022-07-31T12:13:15.934Z,11.68
2022-07-31T12:15:56.658Z,12.27
2022-07-31T12:18:26.391Z,11.00
2022-07-31T12:20:57.388Z,16.40
2022-07-31T12:23:40.800Z,7.32
2022-07-31T12:26:13.331Z,10.85
2022-07-31T12:28:43.981Z,7.93
2022-07-31T12:31:12.245Z,10.07
2022-07-31T12:33:45.649Z,7.30
2022-07-31T12:36:16.767Z,8.45
2022-07-31T12:38:49.031Z,10.45
2022-07-31T12:41:17.924Z,11.02
2022-07-31T12:43:51.539Z,9.82
2022-07-31T12:46:22.781Z,11.75
2022-07-31T12:48:52.070Z,10.63
2022-07-31T12:51:43.984Z,7.45
2022-07-31T12:54:10.276Z,7.93
2022-07-31T12:56:39.508Z,8.45
2022-07-31T12:59:10.317Z,9.30
2022-07-31T13:01:40.385Z,6.78
2022-07-31T13:04:19.050Z,7.90
2022-07-31T13:06:52.078Z,10.27
2022-07-31T13:09:20.483Z,8.38
2022-07-31T13:11:49.917Z,8.55
2022-07-31T13:14:23.946Z,8.13
2022-07-31T13:16:54.247Z,8.63
2022-07-31T13:19:22.973Z,9.68
2022-07-31T13:21:51.178Z,9.43
2022-07-31T13:24:20.458Z,10.35
2022-07-31T13:26:48.831Z,9.02
2022-07-31T13:29:17.825Z,11.10
2022-07-31T13:31:47.482Z,12.20
2022-07-31T13:34:15.760Z,10.48
2022-07-31T13:36:43.981Z,10.80
2022-07-31T13:39:12.382Z,7.93
2022-07-31T13:41:41.729Z,7.30
2022-07-31T13:44:10.488Z,8.43
2022-07-31T13:46:38.548Z,9.60
2022-07-31T13:49:10.398Z,10.82
2022-07-31T13:51:39.239Z,9.93
2022-07-31T13:54:07.850Z,9.48
2022-07-31T13:56:42.794Z,9.07
2022-07-31T13:59:13.092Z,9.63
2022-07-31T14:02:02.812Z,7.38
2022-07-31T14:04:38.127Z,8.82
2022-07-31T14:07:08.564Z,8.50
2022-07-31T14:09:37.640Z,7.43
2022-07-31T14:12:07.027Z,10.07
2022-07-31T14:14:35.646Z,10.30
2022-07-31T14:17:03.909Z,12.32
2022-07-31T14:19:43.809Z,9.48
2022-07-31T14:22:14.421Z,10.07
2022-07-31T14:24:49.894Z,10.05
2022-07-31T14:27:20.944Z,11.13
2022-07-31T14:29:49.402Z,11.55
2022-07-31T14:32:19.168Z,11.30
2022-07-31T14:34:49.514Z,12.20
2022-07-31T14:37:18.069Z,12.15
2022-07-31T14:39:46.305Z,10.80
2022-07-31T14:42:14.745Z,11.95
2022-07-31T14:44:43.256Z,12.38
2022-07-31T14:47:12.304Z,11.90
2022-07-31T14:50:07.922Z,13.10
2022-07-31T14:52:31.028Z,14.35
2022-07-31T14:55:00.712Z,13.73
2022-07-31T14:57:29.843Z,14.18
2022-07-31T14:59:58.173Z,14.20
2022-07-31T15:02:26.862Z,16.05
2022-07-31T15:04:55.157Z,12.07
2022-07-31T15:07:45.808Z,13.05
2022-07-31T15:10:13.485Z,15.95
2022-07-31T15:12:41.825Z,15.77
2022-07-31T15:15:11.642Z,16.05
2022-07-31T15:17:40.157Z,13.60
2022-07-31T15:20:10.874Z,17.38
2022-07-31T15:22:39.183Z,15.35
2022-07-31T15:25:09.466Z,15.07
2022-07-31T15:27:39.186Z,14.02
2022-07-31T15:30:09.115Z,13.13
2022-07-31T15:32:40.308Z,17.35
2022-07-31T15:35:12.486Z,14.35
2022-07-31T15:37:44.113Z,15.55
2022-07-31T15:40:17.088Z,13.95
2022-07-31T15:42:48.989Z,15.90
2022-07-31T15:45:20.415Z,17.10
2022-07-31T15:47:49.536Z,14.73
2022-07-31T15:50:20.280Z,11.48
2022-07-31T15:52:49.510Z,13.32
2022-07-31T15:55:18.248Z,13.15
2022-07-31T15:57:47.937Z,12.82
2022-07-31T16:00:18.151Z,13.57
2022-07-31T16:02:46.384Z,13.30
2022-07-31T16:05:21.826Z,15.63
2022-07-31T16:08:29.795Z,15.32
2022-07-31T16:10:55.158Z,13.90
2022-07-31T16:13:27.126Z,14.55
2022-07-31T16:15:55.823Z,15.05
2022-07-31T16:18:24.643Z,18.00
2022-07-31T16:20:53.039Z,15.35
2022-07-31T16:23:21.895Z,13.80
2022-07-31T16:25:50.172Z,13.35
2022-07-31T16:28:18.884Z,16.52
2022-07-31T16:30:48.560Z,13.95
2022-07-31T16:33:16.887Z,13.73
2022-07-31T16:35:45.126Z,16.10
2022-07-31T16:38:13.535Z,15.07
2022-07-31T16:40:42.114Z,14.88
2022-07-31T16:43:48.295Z,14.10
2022-07-31T16:46:00.276Z,21.75
2022-07-31T16:48:28.634Z,17.35
2022-07-31T16:50:57.088Z,11.73
2022-07-31T16:54:11.013Z,15.23
2022-07-31T16:56:16.197Z,13.73
2022-07-31T16:58:44.860Z,14.55
2022-07-31T17:01:59.632Z,15.40
2022-07-31T17:04:04.705Z,12.13
2022-07-31T17:06:36.153Z,16.55
2022-07-31T17:09:17.047Z,15.52
2022-07-31T17:11:48.282Z,11.50
2022-07-31T17:14:17.984Z,17.08
2022-07-31T17:16:50.525Z,14.05
2022-07-31T17:19:41.107Z,13.50
2022-07-31T17:22:10.918Z,14.50
2022-07-31T17:24:40.236Z,17.90
2022-07-31T17:27:09.584Z,17.70
2022-07-31T17:29:39.314Z,18.02
2022-07-31T17:32:11.181Z,18.92
2022-07-31T17:34:39.965Z,16.55
2022-07-31T17:37:10.760Z,19.42
2022-07-31T17:39:39.303Z,14.45
2022-07-31T17:42:09.459Z,14.38
2022-07-31T17:44:38.087Z,13.73
2022-07-31T17:47:10.012Z,17.80
2022-07-31T17:49:40.675Z,18.50
2022-07-31T17:52:09.541Z,15.60
2022-07-31T17:54:45.270Z,16.98
2022-07-31T17:57:13.454Z,16.65
2022-07-31T17:59:42.430Z,22.08
2022-07-31T18:02:16.186Z,16.00
2022-07-31T18:04:44.768Z,16.02
2022-07-31T18:07:20.076Z,17.70
2022-07-31T18:09:48.597Z,16.90
2022-07-31T18:12:25.379Z,18.15
2022-07-31T18:14:54.982Z,17.27
2022-07-31T18:17:25.614Z,16.55
2022-07-31T18:19:54.242Z,15.63
2022-07-31T18:22:22.957Z,15.63
2022-07-31T18:24:51.231Z,16.25
2022-07-31T18:27:19.411Z,19.17
2022-07-31T18:29:55.784Z,15.13
2022-07-31T18:32:26.284Z,13.50
2022-07-31T18:34:54.484Z,17.15
2022-07-31T18:37:22.870Z,20.05
2022-07-31T18:39:51.545Z,20.73
2022-07-31T18:42:19.963Z,20.25
2022-07-31T18:44:48.319Z,13.75
2022-07-31T18:47:16.773Z,17.38
2022-07-31T18:50:58.255Z,17.17
2022-07-31T18:52:35.302Z,19.63
2022-07-31T18:55:03.472Z,15.93
2022-07-31T18:57:31.711Z,17.30
2022-07-31T19:00:00.187Z,16.00
2022-07-31T19:02:28.970Z,16.98
2022-07-31T19:04:58.974Z,19.50
2022-07-31T19:07:28.859Z,19.20
2022-07-31T19:10:05.264Z,16.90
2022-07-31T19:12:33.541Z,18.40
2022-07-31T19:15:02.818Z,19.65
2022-07-31T19:17:44.128Z,20.02
2022-07-31T19:20:56.325Z,17.35
2022-07-31T19:23:03.860Z,17.08
2022-07-31T19:26:02.259Z,19.10
2022-07-31T19:28:26.624Z,23.38
2022-07-31T19:30:56.689Z,19.08
2022-07-31T19:33:25.523Z,20.42
2022-07-31T19:36:01.475Z,19.65
2022-07-31T19:38:32.527Z,15.07
2022-07-31T19:41:01.304Z,18.98
2022-07-31T19:43:33.489Z,22.02
2022-07-31T19:46:11.187Z,21.55
2022-07-31T19:48:42.989Z,19.83
2022-07-31T19:51:14.331Z,20.95
2022-07-31T19:53:44.482Z,21.25
2022-07-31T19:56:20.159Z,24.05
2022-07-31T19:58:49.881Z,25.55
2022-07-31T20:01:20.349Z,19.67
2022-07-31T20:03:50.484Z,25.73
2022-07-31T20:06:20.596Z,21.65
2022-07-31T20:08:49.137Z,23.60
2022-07-31T20:11:18.254Z,24.50
2022-07-31T20:13:47.027Z,21.58
2022-07-31T20:16:16.612Z,25.45
2022-07-31T20:18:47.052Z,26.48
2022-07-31T20:21:15.882Z,22.05
2022-07-31T20:23:48.799Z,24.30
2022-07-31T20:26:17.659Z,28.08
2022-07-31T20:28:46.443Z,27.27
2022-07-31T20:31:16.317Z,21.95
2022-07-31T20:33:56.525Z,25.10
2022-07-31T20:36:27.002Z,25.73
2022-07-31T20:38:58.108Z,28.88
2022-07-31T20:41:27.403Z,27.35
2022-07-31T20:43:55.661Z,29.27
2022-07-31T20:46:23.869Z,30.95
2022-07-31T20:48:52.116Z,26.95
2022-07-31T20:51:23.106Z,28.80
2022-07-31T20:53:52.283Z,31.35
2022-07-31T20:56:22.911Z,31.10
2022-07-31T20:58:52.113Z,30.30
2022-07-31T21:01:21.183Z,25.85
2022-07-31T21:03:49.813Z,32.85
2022-07-31T21:06:19.297Z,28.63
2022-07-31T21:08:47.807Z,27.90
2022-07-31T21:11:16.203Z,28.83
2022-07-31T21:13:46.528Z,33.85
2022-07-31T21:16:14.951Z,27.52
2022-07-31T21:18:43.795Z,32.20
2022-07-31T21:21:12.511Z,34.85
2022-07-31T21:23:40.865Z,29.30
2022-07-31T21:26:10.027Z,33.42
2022-07-31T21:28:39.568Z,31.10
2022-07-31T21:31:10.700Z,27.25
2022-07-31T21:33:39.931Z,33.20
2022-07-31T21:36:10.021Z,28.40
2022-07-31T21:38:40.192Z,31.48
2022-07-31T21:41:09.610Z,33.40
2022-07-31T21:43:59.033Z,33.55
2022-07-31T21:46:32.495Z,30.30
2022-07-31T21:49:01.335Z,33.47
2022-07-31T21:51:31.115Z,34.35
2022-07-31T21:53:59.910Z,37.03
2022-07-31T21:56:29.749Z,34.65
2022-07-31T21:58:57.947Z,30.73
2022-07-31T22:01:26.299Z,35.15
2022-07-31T22:03:55.946Z,34.20
2022-07-31T22:06:41.906Z,37.22
2022-07-31T22:09:10.156Z,32.10
2022-07-31T22:11:38.444Z,35.50
2022-07-31T22:14:06.671Z,32.75
2022-07-31T22:16:34.891Z,30.80
2022-07-31T22:19:05.398Z,32.83
2022-07-31T22:21:34.158Z,29.92
2022-07-31T22:24:02.812Z,20.85
2022-07-31T22:26:31.956Z,16.38
2022-07-31T22:29:00.802Z,17.05
2022-07-31T22:31:29.530Z,15.05
2022-07-31T22:33:58.443Z,14.80
2022-07-31T22:36:28.836Z,11.82
2022-07-31T22:38:58.132Z,14.80
2022-07-31T22:41:26.511Z,12.38
2022-07-31T22:44:12.633Z,10.27
2022-07-31T22:46:43.401Z,10.50
2022-07-31T22:49:12.377Z,9.20
2022-07-31T22:51:46.385Z,9.43
2022-07-31T22:54:15.033Z,10.00
2022-07-31T22:56:43.204Z,9.52
2022-07-31T22:59:11.387Z,9.63
2022-07-31T23:01:39.578Z,9.88
2022-07-31T23:04:07.727Z,9.40
2022-07-31T23:06:35.951Z,10.30
2022-07-31T23:09:05.677Z,12.30
2022-07-31T23:11:33.886Z,12.10
2022-07-31T23:14:02.084Z,10.00
2022-07-31T23:16:30.244Z,9.15
2022-07-31T23:18:58.631Z,9.55
2022-07-31T23:21:27.058Z,9.15
2022-07-31T23:23:55.382Z,9.02
2022-07-31T23:26:26.824Z,10.45
2022-07-31T23:28:56.570Z,9.35
2022-07-31T23:31:25.042Z,9.43
2022-07-31T23:33:54.366Z,9.10
2022-07-31T23:36:22.736Z,11.68
2022-07-31T23:38:51.190Z,8.68
2022-07-31T23:41:40.950Z,10.13
2022-07-31T23:44:10.430Z,12.23
2022-07-31T23:46:40.364Z,10.07
2022-07-31T23:49:09.494Z,9.57
2022-07-31T23:51:37.955Z,7.53
2022-07-31T23:54:06.330Z,7.32
2022-07-31T23:56:34.716Z,7.72
2022-07-31T23:59:03.032Z,7.95
